M I D A S
Marine Information and Data Acquisition System
Tripno 1624 of the Zeeleeuw from 2008-12-09 08:39:32 to 2008-12-10 15:39:31
Back to CruiseResearch ActivitiesStationsMapUnderway DataData graphs

EquipmentUnitsComments
TimeDGPSUTC
LatitudeDGPSDM.mWGS84
LongitudeDGPSDM.mWGS84
SpeedMeteo Stationm/sRelative wind speed
DirectionMeteo StationdegRelative wind direction
TemperatureMeteo Stationdeg CelciusAir temperature
PressureMeteo StationPaAtmospheric pressure
HumidityMeteo Station%Relative humidity
Missing or incorrect values are displayed as -999
Metereological data collected by the RV Zeeleeuw from 2008-12-09 08:38:46 to 2008-12-10 15:40:52
                                                                                    Next 1000 lines
Time Latitude Longitude Speed Direction Temperature Pressure Humidity
2008-12-09 08:38:56 51°13.623 2°56.048 -999 -999 -999 -999 -999
2008-12-09 08:39:01 51°13.623 2°56.048 -999 -999 -999 -999 -999
2008-12-09 08:39:06 51°13.623 2°56.048 -999 -999 -999 -999 -999
2008-12-09 08:39:11 51°13.623 2°56.048 -999 -999 -999 -999 -999
2008-12-09 08:39:16 51°13.623 2°56.048 -999 -999 -999 -999 -999
2008-12-09 08:39:21 51°13.623 2°56.048 -999 -999 -999 -999 -999
2008-12-09 08:39:26 51°13.623 2°56.048 -999 -999 -999 -999 -999
2008-12-09 08:39:31 51°13.622 2°56.048 -999 -999 -999 -999 -999
2008-12-09 08:39:36 51°13.622 2°56.048 -999 -999 -999 -999 -999
2008-12-09 08:39:41 51°13.622 2°56.048 -999 -999 -999 -999 -999
2008-12-09 08:39:46 51°13.622 2°56.048 -999 -999 -999 -999 -999
2008-12-09 08:39:51 51°13.622 2°56.048 -999 -999 -999 -999 -999
2008-12-09 08:39:56 51°13.621 2°56.048 -999 -999 -999 -999 -999
2008-12-09 08:40:01 51°13.621 2°56.048 -999 -999 -999 -999 -999
2008-12-09 08:40:06 51°13.621 2°56.048 -999 -999 -999 -999 -999
2008-12-09 08:40:11 51°13.621 2°56.048 -999 -999 -999 -999 -999
2008-12-09 08:40:17 51°13.621 2°56.047 -999 -999 -999 -999 -999
2008-12-09 08:40:22 51°13.621 2°56.046 -999 -999 -999 -999 -999
2008-12-09 08:40:27 51°13.621 2°56.044 -999 -999 -999 -999 -999
2008-12-09 08:40:32 51°13.622 2°56.042 -999 -999 -999 -999 -999
2008-12-09 08:40:37 51°13.622 2°56.039 -999 -999 -999 -999 -999
2008-12-09 08:40:42 51°13.622 2°56.036 -999 -999 -999 -999 -999
2008-12-09 08:40:47 51°13.623 2°56.033 -999 -999 -999 -999 -999
2008-12-09 08:40:52 51°13.623 2°56.03 -999 -999 -999 -999 -999
2008-12-09 08:40:57 51°13.623 2°56.025 -999 -999 -999 -999 -999
2008-12-09 08:41:02 51°13.624 2°56.021 -999 -999 -999 -999 -999
2008-12-09 08:41:07 51°13.624 2°56.016 -999 -999 -999 -999 -999
2008-12-09 08:41:12 51°13.625 2°56.011 -999 -999 -999 -999 -999
2008-12-09 08:41:17 51°13.626 2°56.006 -999 -999 -999 -999 -999
2008-12-09 08:41:22 51°13.627 2°56 -999 -999 -999 -999 -999
2008-12-09 08:41:27 51°13.629 2°55.994 -999 -999 -999 -999 -999
2008-12-09 08:41:32 51°13.63 2°55.987 -999 -999 -999 -999 -999
2008-12-09 08:41:37 51°13.632 2°55.98 -999 -999 -999 -999 -999
2008-12-09 08:41:42 51°13.634 2°55.973 -999 -999 -999 -999 -999
2008-12-09 08:41:47 51°13.636 2°55.966 -999 -999 -999 -999 -999
2008-12-09 08:41:52 51°13.638 2°55.959 -999 -999 -999 -999 -999
2008-12-09 08:41:57 51°13.641 2°55.952 -999 -999 -999 -999 -999
2008-12-09 08:42:02 51°13.644 2°55.945 -999 -999 -999 -999 -999
2008-12-09 08:42:07 51°13.647 2°55.938 -999 -999 -999 -999 -999
2008-12-09 08:42:12 51°13.65 2°55.931 -999 -999 -999 -999 -999
2008-12-09 08:42:17 51°13.653 2°55.924 -999 -999 -999 -999 -999
2008-12-09 08:42:22 51°13.657 2°55.917 -999 -999 -999 -999 -999
2008-12-09 08:42:27 51°13.661 2°55.91 -999 -999 -999 -999 -999
2008-12-09 08:42:32 51°13.664 2°55.903 -999 -999 -999 -999 -999
2008-12-09 08:42:37 51°13.668 2°55.896 -999 -999 -999 -999 -999
2008-12-09 08:42:42 51°13.672 2°55.889 -999 -999 -999 -999 -999
2008-12-09 08:42:47 51°13.675 2°55.881 -999 -999 -999 -999 -999
2008-12-09 08:42:52 51°13.679 2°55.874 -999 -999 -999 -999 -999
2008-12-09 08:42:57 51°13.683 2°55.867 -999 -999 -999 -999 -999
2008-12-09 08:43:02 51°13.687 2°55.86 -999 -999 -999 -999 -999
2008-12-09 08:43:07 51°13.691 2°55.852 -999 -999 -999 -999 -999
2008-12-09 08:43:12 51°13.695 2°55.845 -999 -999 -999 -999 -999
2008-12-09 08:43:17 51°13.699 2°55.838 -999 -999 -999 -999 -999
2008-12-09 08:43:22 51°13.703 2°55.83 -999 -999 -999 -999 -999
2008-12-09 08:43:27 51°13.707 2°55.823 -999 -999 -999 -999 -999
2008-12-09 08:43:32 51°13.71 2°55.816 -999 -999 -999 -999 -999
2008-12-09 08:43:37 51°13.714 2°55.809 -999 -999 -999 -999 -999
2008-12-09 08:43:42 51°13.718 2°55.801 -999 -999 -999 -999 -999
2008-12-09 08:43:47 51°13.722 2°55.794 -999 -999 -999 -999 -999
2008-12-09 08:43:52 51°13.726 2°55.786 -999 -999 -999 -999 -999
2008-12-09 08:43:57 51°13.73 2°55.779 -999 -999 -999 -999 -999
2008-12-09 08:44:02 51°13.734 2°55.771 -999 -999 -999 -999 -999
2008-12-09 08:44:07 51°13.738 2°55.763 -999 -999 -999 -999 -999
2008-12-09 08:44:12 51°13.742 2°55.756 -999 -999 -999 -999 -999
2008-12-09 08:44:17 51°13.746 2°55.748 -999 -999 -999 -999 -999
2008-12-09 08:44:22 51°13.751 2°55.741 -999 -999 -999 -999 -999
2008-12-09 08:44:27 51°13.755 2°55.733 -999 -999 -999 -999 -999
2008-12-09 08:44:32 51°13.759 2°55.726 -999 -999 -999 -999 -999
2008-12-09 08:44:37 51°13.764 2°55.719 -999 -999 -999 -999 -999
2008-12-09 08:44:42 51°13.768 2°55.712 -999 -999 -999 -999 -999
2008-12-09 08:44:47 51°13.773 2°55.705 -999 -999 -999 -999 -999
2008-12-09 08:44:52 51°13.777 2°55.698 -999 -999 -999 -999 -999
2008-12-09 08:44:57 51°13.782 2°55.691 -999 -999 -999 -999 -999
2008-12-09 08:45:02 51°13.787 2°55.685 -999 -999 -999 -999 -999
2008-12-09 08:45:07 51°13.792 2°55.679 -999 -999 -999 -999 -999
2008-12-09 08:45:12 51°13.797 2°55.673 -999 -999 -999 -999 -999
2008-12-09 08:45:17 51°13.802 2°55.667 -999 -999 -999 -999 -999
2008-12-09 08:45:22 51°13.807 2°55.662 -999 -999 -999 -999 -999
2008-12-09 08:45:27 51°13.812 2°55.656 -999 -999 -999 -999 -999
2008-12-09 08:45:32 51°13.818 2°55.651 -999 -999 -999 -999 -999
2008-12-09 08:45:37 51°13.823 2°55.646 -999 -999 -999 -999 -999
2008-12-09 08:45:42 51°13.828 2°55.641 -999 -999 -999 -999 -999
2008-12-09 08:45:47 51°13.833 2°55.637 -999 -999 -999 -999 -999
2008-12-09 08:45:52 51°13.839 2°55.634 -999 -999 -999 -999 -999
2008-12-09 08:45:57 51°13.844 2°55.63 -999 -999 -999 -999 -999
2008-12-09 08:46:02 51°13.849 2°55.627 -999 -999 -999 -999 -999
2008-12-09 08:46:07 51°13.855 2°55.625 -999 -999 -999 -999 -999
2008-12-09 08:46:12 51°13.86 2°55.623 -999 -999 -999 -999 -999
2008-12-09 08:46:17 51°13.866 2°55.621 -999 -999 -999 -999 -999
2008-12-09 08:46:22 51°13.871 2°55.62 -999 -999 -999 -999 -999
2008-12-09 08:46:27 51°13.876 2°55.62 -999 -999 -999 -999 -999
2008-12-09 08:46:32 51°13.882 2°55.619 -999 -999 -999 -999 -999
2008-12-09 08:46:37 51°13.887 2°55.62 -999 -999 -999 -999 -999
2008-12-09 08:46:42 51°13.893 2°55.621 -999 -999 -999 -999 -999
2008-12-09 08:46:47 51°13.898 2°55.623 -999 -999 -999 -999 -999
2008-12-09 08:46:52 51°13.903 2°55.625 -999 -999 -999 -999 -999
2008-12-09 08:46:57 51°13.908 2°55.628 -999 -999 -999 -999 -999
2008-12-09 08:47:02 51°13.913 2°55.631 -999 -999 -999 -999 -999
2008-12-09 08:47:07 51°13.917 2°55.634 -999 -999 -999 -999 -999
2008-12-09 08:47:12 51°13.921 2°55.638 -999 -999 -999 -999 -999
2008-12-09 08:47:17 51°13.925 2°55.641 -999 -999 -999 -999 -999
2008-12-09 08:47:22 51°13.928 2°55.645 -999 -999 -999 -999 -999
2008-12-09 08:47:27 51°13.931 2°55.649 -999 -999 -999 -999 -999
2008-12-09 08:47:32 51°13.934 2°55.653 -999 -999 -999 -999 -999
2008-12-09 08:47:37 51°13.937 2°55.656 -999 -999 -999 -999 -999
2008-12-09 08:47:42 51°13.939 2°55.659 -999 -999 -999 -999 -999
2008-12-09 08:47:47 51°13.94 2°55.661 -999 -999 -999 -999 -999
2008-12-09 08:47:52 51°13.94 2°55.662 -999 -999 -999 -999 -999
2008-12-09 08:47:57 51°13.94 2°55.662 -999 -999 -999 -999 -999
2008-12-09 08:48:02 51°13.939 2°55.66 -999 -999 -999 -999 -999
2008-12-09 08:48:07 51°13.938 2°55.657 -999 -999 -999 -999 -999
2008-12-09 08:48:12 51°13.936 2°55.652 -999 -999 -999 -999 -999
2008-12-09 08:48:17 51°13.935 2°55.646 -999 -999 -999 -999 -999
2008-12-09 08:48:22 51°13.935 2°55.638 -999 -999 -999 -999 -999
2008-12-09 08:48:27 51°13.935 2°55.631 -999 -999 -999 -999 -999
2008-12-09 08:48:32 51°13.936 2°55.622 -999 -999 -999 -999 -999
2008-12-09 08:48:37 51°13.938 2°55.613 -999 -999 -999 -999 -999
2008-12-09 08:48:42 51°13.941 2°55.605 -999 -999 -999 -999 -999
2008-12-09 08:48:47 51°13.945 2°55.596 -999 -999 -999 -999 -999
2008-12-09 08:48:52 51°13.949 2°55.587 -999 -999 -999 -999 -999
2008-12-09 08:48:57 51°13.955 2°55.578 -999 -999 -999 -999 -999
2008-12-09 08:49:02 51°13.961 2°55.569 -999 -999 -999 -999 -999
2008-12-09 08:49:07 51°13.967 2°55.561 -999 -999 -999 -999 -999
2008-12-09 08:49:12 51°13.974 2°55.553 -999 -999 -999 -999 -999
2008-12-09 08:49:17 51°13.982 2°55.545 -999 -999 -999 -999 -999
2008-12-09 08:49:22 51°13.99 2°55.536 -999 -999 -999 -999 -999
2008-12-09 08:49:27 51°13.998 2°55.528 -999 -999 -999 -999 -999
2008-12-09 08:49:32 51°14.007 2°55.519 -999 -999 -999 -999 -999
2008-12-09 08:49:37 51°14.016 2°55.511 -999 -999 -999 -999 -999
2008-12-09 08:49:42 51°14.025 2°55.502 -999 -999 -999 -999 -999
2008-12-09 08:49:47 51°14.034 2°55.493 -999 -999 -999 -999 -999
2008-12-09 08:49:52 51°14.042 2°55.484 -999 -999 -999 -999 -999
2008-12-09 08:49:57 51°14.051 2°55.475 -999 -999 -999 -999 -999
2008-12-09 08:50:02 51°14.061 2°55.466 -999 -999 -999 -999 -999
2008-12-09 08:50:07 51°14.07 2°55.458 -999 -999 -999 -999 -999
2008-12-09 08:50:12 51°14.08 2°55.449 -999 -999 -999 -999 -999
2008-12-09 08:50:17 51°14.09 2°55.441 -999 -999 -999 -999 -999
2008-12-09 08:50:22 51°14.099 2°55.432 -999 -999 -999 -999 -999
2008-12-09 08:50:27 51°14.109 2°55.424 -999 -999 -999 -999 -999
2008-12-09 08:50:32 51°14.119 2°55.416 -999 -999 -999 -999 -999
2008-12-09 08:50:37 51°14.129 2°55.407 -999 -999 -999 -999 -999
2008-12-09 08:50:42 51°14.139 2°55.398 -999 -999 -999 -999 -999
2008-12-09 08:50:47 51°14.149 2°55.389 -999 -999 -999 -999 -999
2008-12-09 08:50:52 51°14.16 2°55.38 -999 -999 -999 -999 -999
2008-12-09 08:50:57 51°14.17 2°55.371 -999 -999 -999 -999 -999
2008-12-09 08:51:02 51°14.18 2°55.361 -999 -999 -999 -999 -999
2008-12-09 08:51:07 51°14.189 2°55.35 -999 -999 -999 -999 -999
2008-12-09 08:51:12 51°14.199 2°55.34 -999 -999 -999 -999 -999
2008-12-09 08:51:17 51°14.208 2°55.328 -999 -999 -999 -999 -999
2008-12-09 08:51:22 51°14.217 2°55.316 -999 -999 -999 -999 -999
2008-12-09 08:51:27 51°14.226 2°55.304 -999 -999 -999 -999 -999
2008-12-09 08:51:32 51°14.235 2°55.291 -999 -999 -999 -999 -999
2008-12-09 08:51:37 51°14.243 2°55.278 -999 -999 -999 -999 -999
2008-12-09 08:51:42 51°14.251 2°55.264 -999 -999 -999 -999 -999
2008-12-09 08:51:47 51°14.259 2°55.25 -999 -999 -999 -999 -999
2008-12-09 08:51:52 51°14.267 2°55.236 -999 -999 -999 -999 -999
2008-12-09 08:51:57 51°14.274 2°55.221 -999 -999 -999 -999 -999
2008-12-09 08:52:02 51°14.282 2°55.206 -999 -999 -999 -999 -999
2008-12-09 08:52:07 51°14.289 2°55.191 -999 -999 -999 -999 -999
2008-12-09 08:52:12 51°14.297 2°55.176 -999 -999 -999 -999 -999
2008-12-09 08:52:17 51°14.304 2°55.161 -999 -999 -999 -999 -999
2008-12-09 08:52:22 51°14.311 2°55.146 -999 -999 -999 -999 -999
2008-12-09 08:52:27 51°14.319 2°55.13 -999 -999 -999 -999 -999
2008-12-09 08:52:32 51°14.325 2°55.115 -999 -999 -999 -999 -999
2008-12-09 08:52:37 51°14.332 2°55.098 -999 -999 -999 -999 -999
2008-12-09 08:52:42 51°14.339 2°55.082 -999 -999 -999 -999 -999
2008-12-09 08:52:47 51°14.346 2°55.066 -999 -999 -999 -999 -999
2008-12-09 08:52:52 51°14.352 2°55.049 -999 -999 -999 -999 -999
2008-12-09 08:52:57 51°14.359 2°55.032 -999 -999 -999 -999 -999
2008-12-09 08:53:02 51°14.366 2°55.016 -999 -999 -999 -999 -999
2008-12-09 08:53:07 51°14.374 2°55 -999 -999 -999 -999 -999
2008-12-09 08:53:12 51°14.382 2°54.985 -999 -999 -999 -999 -999
2008-12-09 08:53:17 51°14.391 2°54.97 -999 -999 -999 -999 -999
2008-12-09 08:53:22 51°14.399 2°54.956 -999 -999 -999 -999 -999
2008-12-09 08:53:27 51°14.408 2°54.942 -999 -999 -999 -999 -999
2008-12-09 08:53:32 51°14.416 2°54.928 -999 -999 -999 -999 -999
2008-12-09 08:53:37 51°14.424 2°54.914 -999 -999 -999 -999 -999
2008-12-09 08:53:42 51°14.431 2°54.898 -999 -999 -999 -999 -999
2008-12-09 08:53:47 51°14.438 2°54.883 -999 -999 -999 -999 -999
2008-12-09 08:53:52 51°14.444 2°54.867 -999 -999 -999 -999 -999
2008-12-09 08:53:57 51°14.449 2°54.851 -999 -999 -999 -999 -999
2008-12-09 08:54:02 51°14.454 2°54.835 -999 -999 -999 -999 -999
2008-12-09 08:54:07 51°14.458 2°54.818 -999 -999 -999 -999 -999
2008-12-09 08:54:12 51°14.462 2°54.801 -999 -999 -999 -999 -999
2008-12-09 08:54:17 51°14.465 2°54.783 -999 -999 -999 -999 -999
2008-12-09 08:54:22 51°14.467 2°54.766 -999 -999 -999 -999 -999
2008-12-09 08:54:27 51°14.468 2°54.749 -999 -999 -999 -999 -999
2008-12-09 08:54:32 51°14.469 2°54.731 -999 -999 -999 -999 -999
2008-12-09 08:54:37 51°14.468 2°54.714 -999 -999 -999 -999 -999
2008-12-09 08:54:42 51°14.467 2°54.697 -999 -999 -999 -999 -999
2008-12-09 08:54:47 51°14.465 2°54.68 -999 -999 -999 -999 -999
2008-12-09 08:54:52 51°14.462 2°54.664 -999 -999 -999 -999 -999
2008-12-09 08:54:57 51°14.458 2°54.648 -999 -999 -999 -999 -999
2008-12-09 08:55:02 51°14.453 2°54.632 -999 -999 -999 -999 -999
2008-12-09 08:55:07 51°14.448 2°54.616 -999 -999 -999 -999 -999
2008-12-09 08:55:12 51°14.441 2°54.601 -999 -999 -999 -999 -999
2008-12-09 08:55:17 51°14.436 2°54.585 -999 -999 -999 -999 -999
2008-12-09 08:55:22 51°14.43 2°54.568 -999 -999 -999 -999 -999
2008-12-09 08:55:27 51°14.424 2°54.552 -999 -999 -999 -999 -999
2008-12-09 08:55:32 51°14.418 2°54.535 -999 -999 -999 -999 -999
2008-12-09 08:55:37 51°14.412 2°54.519 -999 -999 -999 -999 -999
2008-12-09 08:55:42 51°14.406 2°54.503 -999 -999 -999 -999 -999
2008-12-09 08:55:47 51°14.401 2°54.487 -999 -999 -999 -999 -999
2008-12-09 08:55:52 51°14.397 2°54.473 -999 -999 -999 -999 -999
2008-12-09 08:55:57 51°14.392 2°54.458 -999 -999 -999 -999 -999
2008-12-09 08:56:02 51°14.388 2°54.444 -999 -999 -999 -999 -999
2008-12-09 08:56:07 51°14.383 2°54.429 -999 -999 -999 -999 -999
2008-12-09 08:56:12 51°14.379 2°54.416 -999 -999 -999 -999 -999
2008-12-09 08:56:17 51°14.375 2°54.403 -999 -999 -999 -999 -999
2008-12-09 08:56:22 51°14.37 2°54.39 -999 -999 -999 -999 -999
2008-12-09 08:56:27 51°14.366 2°54.377 -999 -999 -999 -999 -999
2008-12-09 08:56:32 51°14.362 2°54.365 -999 -999 -999 -999 -999
2008-12-09 08:56:37 51°14.358 2°54.352 -999 -999 -999 -999 -999
2008-12-09 08:56:42 51°14.353 2°54.339 -999 -999 -999 -999 -999
2008-12-09 08:56:47 51°14.349 2°54.327 -999 -999 -999 -999 -999
2008-12-09 08:56:52 51°14.345 2°54.314 -999 -999 -999 -999 -999
2008-12-09 08:56:57 51°14.342 2°54.302 -999 -999 -999 -999 -999
2008-12-09 08:57:02 51°14.337 2°54.289 -999 -999 -999 -999 -999
2008-12-09 08:57:07 51°14.333 2°54.277 -999 -999 -999 -999 -999
2008-12-09 08:57:12 51°14.33 2°54.264 -999 -999 -999 -999 -999
2008-12-09 08:57:17 51°14.326 2°54.252 -999 -999 -999 -999 -999
2008-12-09 08:57:22 51°14.322 2°54.239 -999 -999 -999 -999 -999
2008-12-09 08:57:27 51°14.318 2°54.227 -999 -999 -999 -999 -999
2008-12-09 08:57:32 51°14.313 2°54.214 -999 -999 -999 -999 -999
2008-12-09 08:57:37 51°14.31 2°54.202 -999 -999 -999 -999 -999
2008-12-09 08:57:42 51°14.306 2°54.189 -999 -999 -999 -999 -999
2008-12-09 08:57:47 51°14.301 2°54.177 -999 -999 -999 -999 -999
2008-12-09 08:57:52 51°14.297 2°54.164 -999 -999 -999 -999 -999
2008-12-09 08:57:57 51°14.293 2°54.152 -999 -999 -999 -999 -999
2008-12-09 08:58:02 51°14.289 2°54.14 -999 -999 -999 -999 -999
2008-12-09 08:58:07 51°14.285 2°54.128 -999 -999 -999 -999 -999
2008-12-09 08:58:12 51°14.281 2°54.116 -999 -999 -999 -999 -999
2008-12-09 08:58:17 51°14.277 2°54.104 -999 -999 -999 -999 -999
2008-12-09 08:58:22 51°14.273 2°54.091 -999 -999 -999 -999 -999
2008-12-09 08:58:27 51°14.269 2°54.079 -999 -999 -999 -999 -999
2008-12-09 08:58:32 51°14.265 2°54.067 -999 -999 -999 -999 -999
2008-12-09 08:58:37 51°14.261 2°54.055 -999 -999 -999 -999 -999
2008-12-09 08:58:42 51°14.257 2°54.043 -999 -999 -999 -999 -999
2008-12-09 08:58:47 51°14.252 2°54.031 -999 -999 -999 -999 -999
2008-12-09 08:58:52 51°14.248 2°54.019 -999 -999 -999 -999 -999
2008-12-09 08:58:57 51°14.244 2°54.008 -999 -999 -999 -999 -999
2008-12-09 08:59:02 51°14.239 2°53.997 -999 -999 -999 -999 -999
2008-12-09 08:59:07 51°14.235 2°53.986 -999 -999 -999 -999 -999
2008-12-09 08:59:12 51°14.231 2°53.974 -999 -999 -999 -999 -999
2008-12-09 08:59:17 51°14.227 2°53.963 -999 -999 -999 -999 -999
2008-12-09 08:59:22 51°14.222 2°53.952 -999 -999 -999 -999 -999
2008-12-09 08:59:27 51°14.218 2°53.941 -999 -999 -999 -999 -999
2008-12-09 08:59:32 51°14.214 2°53.929 -999 -999 -999 -999 -999
2008-12-09 08:59:37 51°14.211 2°53.917 -999 -999 -999 -999 -999
2008-12-09 08:59:42 51°14.208 2°53.905 -999 -999 -999 -999 -999
2008-12-09 08:59:47 51°14.204 2°53.894 -999 -999 -999 -999 -999
2008-12-09 08:59:52 51°14.2 2°53.882 -999 -999 -999 -999 -999
2008-12-09 08:59:57 51°14.197 2°53.869 -999 -999 -999 -999 -999
2008-12-09 09:00:02 51°14.193 2°53.857 -999 -999 -999 -999 -999
2008-12-09 09:00:07 51°14.19 2°53.846 -999 -999 -999 -999 -999
2008-12-09 09:00:12 51°14.185 2°53.834 -999 -999 -999 -999 -999
2008-12-09 09:00:17 51°14.182 2°53.822 -999 -999 -999 -999 -999
2008-12-09 09:00:22 51°14.178 2°53.81 -999 -999 -999 -999 -999
2008-12-09 09:00:27 51°14.174 2°53.798 -999 -999 -999 -999 -999
2008-12-09 09:00:32 51°14.17 2°53.786 -999 -999 -999 -999 -999
2008-12-09 09:00:37 51°14.166 2°53.774 -999 -999 -999 -999 -999
2008-12-09 09:00:42 51°14.162 2°53.762 -999 -999 -999 -999 -999
2008-12-09 09:00:47 51°14.158 2°53.75 -999 -999 -999 -999 -999
2008-12-09 09:00:52 51°14.153 2°53.738 -999 -999 -999 -999 -999
2008-12-09 09:00:57 51°14.149 2°53.726 -999 -999 -999 -999 -999
2008-12-09 09:01:02 51°14.145 2°53.714 -999 -999 -999 -999 -999
2008-12-09 09:01:07 51°14.14 2°53.702 -999 -999 -999 -999 -999
2008-12-09 09:01:12 51°14.136 2°53.691 -999 -999 -999 -999 -999
2008-12-09 09:01:17 51°14.131 2°53.679 -999 -999 -999 -999 -999
2008-12-09 09:01:22 51°14.127 2°53.667 -999 -999 -999 -999 -999
2008-12-09 09:01:27 51°14.122 2°53.656 -999 -999 -999 -999 -999
2008-12-09 09:01:32 51°14.118 2°53.644 -999 -999 -999 -999 -999
2008-12-09 09:01:37 51°14.114 2°53.632 -999 -999 -999 -999 -999
2008-12-09 09:01:42 51°14.11 2°53.62 -999 -999 -999 -999 -999
2008-12-09 09:01:47 51°14.106 2°53.609 -999 -999 -999 -999 -999
2008-12-09 09:01:52 51°14.101 2°53.596 -999 -999 -999 -999 -999
2008-12-09 09:01:57 51°14.097 2°53.585 -999 -999 -999 -999 -999
2008-12-09 09:02:02 51°14.093 2°53.573 -999 -999 -999 -999 -999
2008-12-09 09:02:07 51°14.088 2°53.561 -999 -999 -999 -999 -999
2008-12-09 09:02:12 51°14.084 2°53.548 -999 -999 -999 -999 -999
2008-12-09 09:02:17 51°14.079 2°53.537 -999 -999 -999 -999 -999
2008-12-09 09:02:22 51°14.075 2°53.524 -999 -999 -999 -999 -999
2008-12-09 09:02:27 51°14.07 2°53.512 -999 -999 -999 -999 -999
2008-12-09 09:02:32 51°14.066 2°53.5 -999 -999 -999 -999 -999
2008-12-09 09:02:37 51°14.062 2°53.488 -999 -999 -999 -999 -999
2008-12-09 09:02:42 51°14.057 2°53.476 -999 -999 -999 -999 -999
2008-12-09 09:02:47 51°14.053 2°53.464 -999 -999 -999 -999 -999
2008-12-09 09:02:52 51°14.048 2°53.454 -999 -999 -999 -999 -999
2008-12-09 09:02:57 51°14.043 2°53.442 -999 -999 -999 -999 -999
2008-12-09 09:03:02 51°14.039 2°53.43 -999 -999 -999 -999 -999
2008-12-09 09:03:07 51°14.035 2°53.419 -999 -999 -999 -999 -999
2008-12-09 09:03:12 51°14.031 2°53.408 -999 -999 -999 -999 -999
2008-12-09 09:03:17 51°14.027 2°53.397 -999 -999 -999 -999 -999
2008-12-09 09:03:22 51°14.024 2°53.388 -999 -999 -999 -999 -999
2008-12-09 09:03:27 51°14.021 2°53.38 -999 -999 -999 -999 -999
2008-12-09 09:03:32 51°14.018 2°53.371 -999 -999 -999 -999 -999
2008-12-09 09:03:37 51°14.016 2°53.364 -999 -999 -999 -999 -999
2008-12-09 09:03:42 51°14.014 2°53.357 -999 -999 -999 -999 -999
2008-12-09 09:03:47 51°14.012 2°53.35 -999 -999 -999 -999 -999
2008-12-09 09:03:52 51°14.01 2°53.345 -999 -999 -999 -999 -999
2008-12-09 09:03:57 51°14.009 2°53.339 -999 -999 -999 -999 -999
2008-12-09 09:04:02 51°14.007 2°53.334 -999 -999 -999 -999 -999
2008-12-09 09:04:07 51°14.006 2°53.329 -999 -999 -999 -999 -999
2008-12-09 09:04:12 51°14.005 2°53.325 -999 -999 -999 -999 -999
2008-12-09 09:04:17 51°14.004 2°53.321 -999 -999 -999 -999 -999
2008-12-09 09:04:22 51°14.002 2°53.317 -999 -999 -999 -999 -999
2008-12-09 09:04:27 51°14.001 2°53.314 -999 -999 -999 -999 -999
2008-12-09 09:04:32 51°14 2°53.31 -999 -999 -999 -999 -999
2008-12-09 09:04:37 51°13.999 2°53.307 -999 -999 -999 -999 -999
2008-12-09 09:04:42 51°13.998 2°53.305 -999 -999 -999 -999 -999
2008-12-09 09:04:47 51°13.997 2°53.302 -999 -999 -999 -999 -999
2008-12-09 09:04:52 51°13.996 2°53.3 -999 -999 -999 -999 -999
2008-12-09 09:04:57 51°13.996 2°53.298 -999 -999 -999 -999 -999
2008-12-09 09:05:02 51°13.995 2°53.296 -999 -999 -999 -999 -999
2008-12-09 09:05:07 51°13.994 2°53.294 -999 -999 -999 -999 -999
2008-12-09 09:05:12 51°13.993 2°53.292 -999 -999 -999 -999 -999
2008-12-09 09:05:17 51°13.993 2°53.291 -999 -999 -999 -999 -999
2008-12-09 09:05:22 51°13.992 2°53.288 -999 -999 -999 -999 -999
2008-12-09 09:05:27 51°13.991 2°53.286 -999 -999 -999 -999 -999
2008-12-09 09:05:32 51°13.99 2°53.284 -999 -999 -999 -999 -999
2008-12-09 09:05:37 51°13.989 2°53.281 -999 -999 -999 -999 -999
2008-12-09 09:05:42 51°13.988 2°53.278 -999 -999 -999 -999 -999
2008-12-09 09:05:47 51°13.986 2°53.274 -999 -999 -999 -999 -999
2008-12-09 09:05:52 51°13.985 2°53.27 -999 -999 -999 -999 -999
2008-12-09 09:05:57 51°13.983 2°53.266 -999 -999 -999 -999 -999
2008-12-09 09:06:02 51°13.982 2°53.262 -999 -999 -999 -999 -999
2008-12-09 09:06:07 51°13.98 2°53.257 -999 -999 -999 -999 -999
2008-12-09 09:06:12 51°13.978 2°53.252 -999 -999 -999 -999 -999
2008-12-09 09:06:17 51°13.976 2°53.248 -999 -999 -999 -999 -999
2008-12-09 09:06:22 51°13.974 2°53.243 -999 -999 -999 -999 -999
2008-12-09 09:06:27 51°13.971 2°53.238 -999 -999 -999 -999 -999
2008-12-09 09:06:32 51°13.969 2°53.234 -999 -999 -999 -999 -999
2008-12-09 09:06:37 51°13.967 2°53.229 -999 -999 -999 -999 -999
2008-12-09 09:06:42 51°13.964 2°53.224 -999 -999 -999 -999 -999
2008-12-09 09:06:47 51°13.962 2°53.219 -999 -999 -999 -999 -999
2008-12-09 09:06:52 51°13.959 2°53.214 -999 -999 -999 -999 -999
2008-12-09 09:06:57 51°13.957 2°53.209 -999 -999 -999 -999 -999
2008-12-09 09:07:02 51°13.954 2°53.204 -999 -999 -999 -999 -999
2008-12-09 09:07:07 51°13.952 2°53.199 -999 -999 -999 -999 -999
2008-12-09 09:07:12 51°13.95 2°53.195 -999 -999 -999 -999 -999
2008-12-09 09:07:17 51°13.947 2°53.192 -999 -999 -999 -999 -999
2008-12-09 09:07:22 51°13.945 2°53.189 -999 -999 -999 -999 -999
2008-12-09 09:07:27 51°13.943 2°53.185 -999 -999 -999 -999 -999
2008-12-09 09:07:32 51°13.941 2°53.182 -999 -999 -999 -999 -999
2008-12-09 09:07:37 51°13.939 2°53.179 -999 -999 -999 -999 -999
2008-12-09 09:07:42 51°13.937 2°53.175 -999 -999 -999 -999 -999
2008-12-09 09:07:47 51°13.935 2°53.172 -999 -999 -999 -999 -999
2008-12-09 09:07:52 51°13.933 2°53.168 -999 -999 -999 -999 -999
2008-12-09 09:07:57 51°13.931 2°53.164 -999 -999 -999 -999 -999
2008-12-09 09:08:02 51°13.929 2°53.16 -999 -999 -999 -999 -999
2008-12-09 09:08:07 51°13.927 2°53.156 -999 -999 -999 -999 -999
2008-12-09 09:08:12 51°13.925 2°53.153 -999 -999 -999 -999 -999
2008-12-09 09:08:17 51°13.923 2°53.148 -999 -999 -999 -999 -999
2008-12-09 09:08:22 51°13.921 2°53.144 -999 -999 -999 -999 -999
2008-12-09 09:08:27 51°13.918 2°53.139 -999 -999 -999 -999 -999
2008-12-09 09:08:32 51°13.916 2°53.135 -999 -999 -999 -999 -999
2008-12-09 09:08:37 51°13.914 2°53.131 -999 -999 -999 -999 -999
2008-12-09 09:08:42 51°13.911 2°53.127 -999 -999 -999 -999 -999
2008-12-09 09:08:47 51°13.909 2°53.122 -999 -999 -999 -999 -999
2008-12-09 09:08:52 51°13.907 2°53.117 -999 -999 -999 -999 -999
2008-12-09 09:08:57 51°13.904 2°53.112 -999 -999 -999 -999 -999
2008-12-09 09:09:02 51°13.902 2°53.106 -999 -999 -999 -999 -999
2008-12-09 09:09:07 51°13.9 2°53.101 -999 -999 -999 -999 -999
2008-12-09 09:09:12 51°13.897 2°53.096 -999 -999 -999 -999 -999
2008-12-09 09:09:17 51°13.895 2°53.091 -999 -999 -999 -999 -999
2008-12-09 09:09:22 51°13.893 2°53.086 -999 -999 -999 -999 -999
2008-12-09 09:09:27 51°13.89 2°53.081 -999 -999 -999 -999 -999
2008-12-09 09:09:32 51°13.888 2°53.076 -999 -999 -999 -999 -999
2008-12-09 09:09:37 51°13.886 2°53.071 -999 -999 -999 -999 -999
2008-12-09 09:09:42 51°13.884 2°53.065 -999 -999 -999 -999 -999
2008-12-09 09:09:47 51°13.882 2°53.06 -999 -999 -999 -999 -999
2008-12-09 09:09:52 51°13.879 2°53.054 -999 -999 -999 -999 -999
2008-12-09 09:09:57 51°13.878 2°53.049 -999 -999 -999 -999 -999
2008-12-09 09:10:02 51°13.875 2°53.044 -999 -999 -999 -999 -999
2008-12-09 09:10:07 51°13.874 2°53.039 -999 -999 -999 -999 -999
2008-12-09 09:10:12 51°13.871 2°53.036 -999 -999 -999 -999 -999
2008-12-09 09:10:17 51°13.869 2°53.033 -999 -999 -999 -999 -999
2008-12-09 09:10:22 51°13.867 2°53.03 -999 -999 -999 -999 -999
2008-12-09 09:10:27 51°13.865 2°53.028 -999 -999 -999 -999 -999
2008-12-09 09:10:32 51°13.864 2°53.026 -999 -999 -999 -999 -999
2008-12-09 09:10:37 51°13.863 2°53.023 -999 -999 -999 -999 -999
2008-12-09 09:10:42 51°13.862 2°53.021 -999 -999 -999 -999 -999
2008-12-09 09:10:47 51°13.86 2°53.018 -999 -999 -999 -999 -999
2008-12-09 09:10:52 51°13.859 2°53.015 -999 -999 -999 -999 -999
2008-12-09 09:10:57 51°13.858 2°53.012 -999 -999 -999 -999 -999
2008-12-09 09:11:02 51°13.857 2°53.009 -999 -999 -999 -999 -999
2008-12-09 09:11:07 51°13.856 2°53.006 -999 -999 -999 -999 -999
2008-12-09 09:11:12 51°13.854 2°53.003 -999 -999 -999 -999 -999
2008-12-09 09:11:17 51°13.854 2°53 -999 -999 -999 -999 -999
2008-12-09 09:11:22 51°13.852 2°52.997 -999 -999 -999 -999 -999
2008-12-09 09:11:27 51°13.851 2°52.993 -999 -999 -999 -999 -999
2008-12-09 09:11:32 51°13.85 2°52.99 -999 -999 -999 -999 -999
2008-12-09 09:11:37 51°13.849 2°52.986 -999 -999 -999 -999 -999
2008-12-09 09:11:42 51°13.848 2°52.983 -999 -999 -999 -999 -999
2008-12-09 09:11:47 51°13.846 2°52.979 -999 -999 -999 -999 -999
2008-12-09 09:11:52 51°13.845 2°52.976 -999 -999 -999 -999 -999
2008-12-09 09:11:57 51°13.844 2°52.974 -999 -999 -999 -999 -999
2008-12-09 09:12:02 51°13.843 2°52.971 -999 -999 -999 -999 -999
2008-12-09 09:12:07 51°13.842 2°52.969 -999 -999 -999 -999 -999
2008-12-09 09:12:12 51°13.84 2°52.966 -999 -999 -999 -999 -999
2008-12-09 09:12:17 51°13.839 2°52.963 -999 -999 -999 -999 -999
2008-12-09 09:12:22 51°13.838 2°52.959 -999 -999 -999 -999 -999
2008-12-09 09:12:27 51°13.836 2°52.956 -999 -999 -999 -999 -999
2008-12-09 09:12:32 51°13.835 2°52.953 -999 -999 -999 -999 -999
2008-12-09 09:12:37 51°13.834 2°52.949 -999 -999 -999 -999 -999
2008-12-09 09:12:42 51°13.832 2°52.945 -999 -999 -999 -999 -999
2008-12-09 09:12:47 51°13.831 2°52.941 -999 -999 -999 -999 -999
2008-12-09 09:12:52 51°13.829 2°52.937 -999 -999 -999 -999 -999
2008-12-09 09:12:57 51°13.828 2°52.932 -999 -999 -999 -999 -999
2008-12-09 09:13:02 51°13.826 2°52.929 -999 -999 -999 -999 -999
2008-12-09 09:13:07 51°13.825 2°52.925 -999 -999 -999 -999 -999
2008-12-09 09:13:12 51°13.823 2°52.92 -999 -999 -999 -999 -999
2008-12-09 09:13:17 51°13.821 2°52.916 -999 -999 -999 -999 -999
2008-12-09 09:13:22 51°13.82 2°52.911 -999 -999 -999 -999 -999
2008-12-09 09:13:27 51°13.818 2°52.907 -999 -999 -999 -999 -999
2008-12-09 09:13:32 51°13.817 2°52.902 -999 -999 -999 -999 -999
2008-12-09 09:13:37 51°13.815 2°52.897 -999 -999 -999 -999 -999
2008-12-09 09:13:42 51°13.813 2°52.892 -999 -999 -999 -999 -999
2008-12-09 09:13:47 51°13.812 2°52.888 -999 -999 -999 -999 -999
2008-12-09 09:13:52 51°13.81 2°52.883 -999 -999 -999 -999 -999
2008-12-09 09:13:57 51°13.808 2°52.878 -999 -999 -999 -999 -999
2008-12-09 09:14:02 51°13.806 2°52.873 -999 -999 -999 -999 -999
2008-12-09 09:14:07 51°13.804 2°52.868 -999 -999 -999 -999 -999
2008-12-09 09:14:12 51°13.802 2°52.863 -999 -999 -999 -999 -999
2008-12-09 09:14:17 51°13.801 2°52.858 -999 -999 -999 -999 -999
2008-12-09 09:14:22 51°13.799 2°52.854 -999 -999 -999 -999 -999
2008-12-09 09:14:27 51°13.797 2°52.849 -999 -999 -999 -999 -999
2008-12-09 09:14:32 51°13.795 2°52.845 -999 -999 -999 -999 -999
2008-12-09 09:14:37 51°13.794 2°52.841 -999 -999 -999 -999 -999
2008-12-09 09:14:42 51°13.792 2°52.837 -999 -999 -999 -999 -999
2008-12-09 09:14:47 51°13.79 2°52.833 -999 -999 -999 -999 -999
2008-12-09 09:14:52 51°13.789 2°52.829 -999 -999 -999 -999 -999
2008-12-09 09:14:57 51°13.787 2°52.825 -999 -999 -999 -999 -999
2008-12-09 09:15:02 51°13.785 2°52.821 -999 -999 -999 -999 -999
2008-12-09 09:15:07 51°13.784 2°52.816 -999 -999 -999 -999 -999
2008-12-09 09:15:12 51°13.782 2°52.812 -999 -999 -999 -999 -999
2008-12-09 09:15:17 51°13.781 2°52.809 -999 -999 -999 -999 -999
2008-12-09 09:15:22 51°13.779 2°52.805 -999 -999 -999 -999 -999
2008-12-09 09:15:27 51°13.778 2°52.801 -999 -999 -999 -999 -999
2008-12-09 09:15:32 51°13.777 2°52.797 -999 -999 -999 -999 -999
2008-12-09 09:15:37 51°13.776 2°52.793 -999 -999 -999 -999 -999
2008-12-09 09:15:42 51°13.774 2°52.79 -999 -999 -999 -999 -999
2008-12-09 09:15:47 51°13.773 2°52.786 -999 -999 -999 -999 -999
2008-12-09 09:15:52 51°13.772 2°52.782 -999 -999 -999 -999 -999
2008-12-09 09:15:57 51°13.771 2°52.778 -999 -999 -999 -999 -999
2008-12-09 09:16:02 51°13.769 2°52.774 -999 -999 -999 -999 -999
2008-12-09 09:16:07 51°13.768 2°52.77 -999 -999 -999 -999 -999
2008-12-09 09:16:12 51°13.767 2°52.766 -999 -999 -999 -999 -999
2008-12-09 09:16:17 51°13.765 2°52.762 -999 -999 -999 -999 -999
2008-12-09 09:16:22 51°13.764 2°52.758 -999 -999 -999 -999 -999
2008-12-09 09:16:27 51°13.762 2°52.755 -999 -999 -999 -999 -999
2008-12-09 09:16:32 51°13.761 2°52.751 -999 -999 -999 -999 -999
2008-12-09 09:16:37 51°13.759 2°52.747 -999 -999 -999 -999 -999
2008-12-09 09:16:42 51°13.758 2°52.744 -999 -999 -999 -999 -999
2008-12-09 09:16:47 51°13.756 2°52.74 -999 -999 -999 -999 -999
2008-12-09 09:16:52 51°13.755 2°52.736 -999 -999 -999 -999 -999
2008-12-09 09:16:57 51°13.753 2°52.733 -999 -999 -999 -999 -999
2008-12-09 09:17:02 51°13.752 2°52.729 -999 -999 -999 -999 -999
2008-12-09 09:17:07 51°13.75 2°52.725 -999 -999 -999 -999 -999
2008-12-09 09:17:12 51°13.749 2°52.721 -999 -999 -999 -999 -999
2008-12-09 09:17:17 51°13.747 2°52.718 -999 -999 -999 -999 -999
2008-12-09 09:17:22 51°13.745 2°52.714 -999 -999 -999 -999 -999
2008-12-09 09:17:27 51°13.744 2°52.71 -999 -999 -999 -999 -999
2008-12-09 09:17:32 51°13.742 2°52.706 -999 -999 -999 -999 -999
2008-12-09 09:17:37 51°13.741 2°52.701 -999 -999 -999 -999 -999
2008-12-09 09:17:42 51°13.739 2°52.698 -999 -999 -999 -999 -999
2008-12-09 09:17:47 51°13.737 2°52.694 -999 -999 -999 -999 -999
2008-12-09 09:17:52 51°13.736 2°52.69 -999 -999 -999 -999 -999
2008-12-09 09:17:57 51°13.734 2°52.687 -999 -999 -999 -999 -999
2008-12-09 09:18:02 51°13.733 2°52.683 -999 -999 -999 -999 -999
2008-12-09 09:18:07 51°13.732 2°52.679 -999 -999 -999 -999 -999
2008-12-09 09:18:12 51°13.73 2°52.675 -999 -999 -999 -999 -999
2008-12-09 09:18:17 51°13.729 2°52.671 -999 -999 -999 -999 -999
2008-12-09 09:18:22 51°13.728 2°52.667 -999 -999 -999 -999 -999
2008-12-09 09:18:27 51°13.726 2°52.663 -999 -999 -999 -999 -999
2008-12-09 09:18:32 51°13.725 2°52.659 -999 -999 -999 -999 -999
2008-12-09 09:18:37 51°13.723 2°52.656 -999 -999 -999 -999 -999
2008-12-09 09:18:42 51°13.722 2°52.652 -999 -999 -999 -999 -999
2008-12-09 09:18:47 51°13.721 2°52.649 -999 -999 -999 -999 -999
2008-12-09 09:18:52 51°13.72 2°52.645 -999 -999 -999 -999 -999
2008-12-09 09:18:57 51°13.718 2°52.641 -999 -999 -999 -999 -999
2008-12-09 09:19:02 51°13.717 2°52.637 -999 -999 -999 -999 -999
2008-12-09 09:19:07 51°13.715 2°52.633 -999 -999 -999 -999 -999
2008-12-09 09:19:12 51°13.714 2°52.629 -999 -999 -999 -999 -999
2008-12-09 09:19:17 51°13.713 2°52.624 -999 -999 -999 -999 -999
2008-12-09 09:19:22 51°13.712 2°52.619 -999 -999 -999 -999 -999
2008-12-09 09:19:27 51°13.71 2°52.613 -999 -999 -999 -999 -999
2008-12-09 09:19:32 51°13.709 2°52.608 -999 -999 -999 -999 -999
2008-12-09 09:19:37 51°13.709 2°52.602 -999 -999 -999 -999 -999
2008-12-09 09:19:42 51°13.708 2°52.596 -999 -999 -999 -999 -999
2008-12-09 09:19:47 51°13.707 2°52.59 -999 -999 -999 -999 -999
2008-12-09 09:19:52 51°13.706 2°52.585 -999 -999 -999 -999 -999
2008-12-09 09:19:57 51°13.704 2°52.58 -999 -999 -999 -999 -999
2008-12-09 09:20:02 51°13.703 2°52.574 -999 -999 -999 -999 -999
2008-12-09 09:20:07 51°13.702 2°52.569 -999 -999 -999 -999 -999
2008-12-09 09:20:12 51°13.701 2°52.563 -999 -999 -999 -999 -999
2008-12-09 09:20:17 51°13.7 2°52.559 -999 -999 -999 -999 -999
2008-12-09 09:20:22 51°13.699 2°52.554 -999 -999 -999 -999 -999
2008-12-09 09:20:27 51°13.698 2°52.549 -999 -999 -999 -999 -999
2008-12-09 09:20:32 51°13.698 2°52.545 -999 -999 -999 -999 -999
2008-12-09 09:20:37 51°13.697 2°52.54 -999 -999 -999 -999 -999
2008-12-09 09:20:42 51°13.696 2°52.536 -999 -999 -999 -999 -999
2008-12-09 09:20:47 51°13.695 2°52.531 -999 -999 -999 -999 -999
2008-12-09 09:20:52 51°13.695 2°52.527 -999 -999 -999 -999 -999
2008-12-09 09:20:57 51°13.694 2°52.523 -999 -999 -999 -999 -999
2008-12-09 09:21:02 51°13.694 2°52.518 -999 -999 -999 -999 -999
2008-12-09 09:21:07 51°13.693 2°52.514 -999 -999 -999 -999 -999
2008-12-09 09:21:12 51°13.692 2°52.509 -999 -999 -999 -999 -999
2008-12-09 09:21:17 51°13.691 2°52.505 -999 -999 -999 -999 -999
2008-12-09 09:21:22 51°13.691 2°52.5 -999 -999 -999 -999 -999
2008-12-09 09:21:27 51°13.69 2°52.496 -999 -999 -999 -999 -999
2008-12-09 09:21:32 51°13.689 2°52.492 -999 -999 -999 -999 -999
2008-12-09 09:21:37 51°13.688 2°52.488 -999 -999 -999 -999 -999
2008-12-09 09:21:42 51°13.687 2°52.484 -999 -999 -999 -999 -999
2008-12-09 09:21:47 51°13.686 2°52.48 -999 -999 -999 -999 -999
2008-12-09 09:21:52 51°13.684 2°52.476 -999 -999 -999 -999 -999
2008-12-09 09:21:57 51°13.683 2°52.473 -999 -999 -999 -999 -999
2008-12-09 09:22:02 51°13.682 2°52.469 -999 -999 -999 -999 -999
2008-12-09 09:22:07 51°13.681 2°52.465 -999 -999 -999 -999 -999
2008-12-09 09:22:12 51°13.68 2°52.461 -999 -999 -999 -999 -999
2008-12-09 09:22:17 51°13.679 2°52.457 -999 -999 -999 -999 -999
2008-12-09 09:22:22 51°13.678 2°52.453 -999 -999 -999 -999 -999
2008-12-09 09:22:27 51°13.677 2°52.449 -999 -999 -999 -999 -999
2008-12-09 09:22:32 51°13.676 2°52.445 -999 -999 -999 -999 -999
2008-12-09 09:22:37 51°13.675 2°52.441 -999 -999 -999 -999 -999
2008-12-09 09:22:42 51°13.674 2°52.437 -999 -999 -999 -999 -999
2008-12-09 09:22:47 51°13.674 2°52.433 -999 -999 -999 -999 -999
2008-12-09 09:22:52 51°13.673 2°52.429 -999 -999 -999 -999 -999
2008-12-09 09:22:57 51°13.672 2°52.425 -999 -999 -999 -999 -999
2008-12-09 09:23:02 51°13.671 2°52.421 -999 -999 -999 -999 -999
2008-12-09 09:23:07 51°13.67 2°52.417 -999 -999 -999 -999 -999
2008-12-09 09:23:12 51°13.669 2°52.413 -999 -999 -999 -999 -999
2008-12-09 09:23:17 51°13.668 2°52.41 -999 -999 -999 -999 -999
2008-12-09 09:23:22 51°13.666 2°52.406 -999 -999 -999 -999 -999
2008-12-09 09:23:27 51°13.666 2°52.402 -999 -999 -999 -999 -999
2008-12-09 09:23:32 51°13.665 2°52.399 -999 -999 -999 -999 -999
2008-12-09 09:23:37 51°13.664 2°52.395 -999 -999 -999 -999 -999
2008-12-09 09:23:42 51°13.663 2°52.391 -999 -999 -999 -999 -999
2008-12-09 09:23:47 51°13.662 2°52.387 -999 -999 -999 -999 -999
2008-12-09 09:23:52 51°13.66 2°52.383 -999 -999 -999 -999 -999
2008-12-09 09:23:57 51°13.659 2°52.38 -999 -999 -999 -999 -999
2008-12-09 09:24:02 51°13.659 2°52.376 -999 -999 -999 -999 -999
2008-12-09 09:24:07 51°13.658 2°52.372 -999 -999 -999 -999 -999
2008-12-09 09:24:12 51°13.657 2°52.369 -999 -999 -999 -999 -999
2008-12-09 09:24:17 51°13.656 2°52.365 -999 -999 -999 -999 -999
2008-12-09 09:24:22 51°13.655 2°52.362 -999 -999 -999 -999 -999
2008-12-09 09:24:27 51°13.654 2°52.358 -999 -999 -999 -999 -999
2008-12-09 09:24:32 51°13.653 2°52.354 -999 -999 -999 -999 -999
2008-12-09 09:24:37 51°13.652 2°52.351 -999 -999 -999 -999 -999
2008-12-09 09:24:42 51°13.651 2°52.347 -999 -999 -999 -999 -999
2008-12-09 09:24:47 51°13.65 2°52.344 -999 -999 -999 -999 -999
2008-12-09 09:24:52 51°13.649 2°52.341 -999 -999 -999 -999 -999
2008-12-09 09:24:57 51°13.648 2°52.337 -999 -999 -999 -999 -999
2008-12-09 09:25:02 51°13.647 2°52.334 -999 -999 -999 -999 -999
2008-12-09 09:25:07 51°13.646 2°52.33 -999 -999 -999 -999 -999
2008-12-09 09:25:12 51°13.646 2°52.326 -999 -999 -999 -999 -999
2008-12-09 09:25:17 51°13.645 2°52.323 -999 -999 -999 -999 -999
2008-12-09 09:25:22 51°13.644 2°52.319 -999 -999 -999 -999 -999
2008-12-09 09:25:27 51°13.643 2°52.315 -999 -999 -999 -999 -999
2008-12-09 09:25:32 51°13.643 2°52.311 -999 -999 -999 -999 -999
2008-12-09 09:25:37 51°13.642 2°52.307 -999 -999 -999 -999 -999
2008-12-09 09:25:42 51°13.641 2°52.303 -999 -999 -999 -999 -999
2008-12-09 09:25:47 51°13.64 2°52.299 -999 -999 -999 -999 -999
2008-12-09 09:25:52 51°13.64 2°52.295 -999 -999 -999 -999 -999
2008-12-09 09:25:57 51°13.639 2°52.291 -999 -999 -999 -999 -999
2008-12-09 09:26:02 51°13.638 2°52.287 -999 -999 -999 -999 -999
2008-12-09 09:26:07 51°13.638 2°52.282 -999 -999 -999 -999 -999
2008-12-09 09:26:12 51°13.637 2°52.278 -999 -999 -999 -999 -999
2008-12-09 09:26:17 51°13.636 2°52.275 -999 -999 -999 -999 -999
2008-12-09 09:26:22 51°13.635 2°52.271 -999 -999 -999 -999 -999
2008-12-09 09:26:27 51°13.635 2°52.267 -999 -999 -999 -999 -999
2008-12-09 09:26:32 51°13.634 2°52.263 -999 -999 -999 -999 -999
2008-12-09 09:26:37 51°13.633 2°52.26 -999 -999 -999 -999 -999
2008-12-09 09:26:42 51°13.632 2°52.257 -999 -999 -999 -999 -999
2008-12-09 09:26:47 51°13.631 2°52.253 -999 -999 -999 -999 -999
2008-12-09 09:26:52 51°13.63 2°52.25 -999 -999 -999 -999 -999
2008-12-09 09:26:57 51°13.629 2°52.246 -999 -999 -999 -999 -999
2008-12-09 09:27:02 51°13.628 2°52.242 -999 -999 -999 -999 -999
2008-12-09 09:27:07 51°13.627 2°52.239 -999 -999 -999 -999 -999
2008-12-09 09:27:12 51°13.626 2°52.235 -999 -999 -999 -999 -999
2008-12-09 09:27:17 51°13.625 2°52.232 -999 -999 -999 -999 -999
2008-12-09 09:27:22 51°13.624 2°52.228 -999 -999 -999 -999 -999
2008-12-09 09:27:27 51°13.623 2°52.224 -999 -999 -999 -999 -999
2008-12-09 09:27:32 51°13.623 2°52.22 -999 -999 -999 -999 -999
2008-12-09 09:27:37 51°13.622 2°52.216 -999 -999 -999 -999 -999
2008-12-09 09:27:42 51°13.621 2°52.212 -999 -999 -999 -999 -999
2008-12-09 09:27:47 51°13.62 2°52.208 -999 -999 -999 -999 -999
2008-12-09 09:27:52 51°13.62 2°52.204 -999 -999 -999 -999 -999
2008-12-09 09:27:57 51°13.619 2°52.2 -999 -999 -999 -999 -999
2008-12-09 09:28:02 51°13.618 2°52.196 -999 -999 -999 -999 -999
2008-12-09 09:28:07 51°13.617 2°52.192 -999 -999 -999 -999 -999
2008-12-09 09:28:12 51°13.616 2°52.188 -999 -999 -999 -999 -999
2008-12-09 09:28:17 51°13.616 2°52.184 -999 -999 -999 -999 -999
2008-12-09 09:28:22 51°13.615 2°52.18 -999 -999 -999 -999 -999
2008-12-09 09:28:27 51°13.614 2°52.176 -999 -999 -999 -999 -999
2008-12-09 09:28:32 51°13.613 2°52.171 -999 -999 -999 -999 -999
2008-12-09 09:28:37 51°13.612 2°52.167 -999 -999 -999 -999 -999
2008-12-09 09:28:42 51°13.611 2°52.163 -999 -999 -999 -999 -999
2008-12-09 09:28:47 51°13.611 2°52.159 -999 -999 -999 -999 -999
2008-12-09 09:28:52 51°13.61 2°52.155 -999 -999 -999 -999 -999
2008-12-09 09:28:57 51°13.608 2°52.151 -999 -999 -999 -999 -999
2008-12-09 09:29:02 51°13.607 2°52.148 -999 -999 -999 -999 -999
2008-12-09 09:29:07 51°13.605 2°52.144 -999 -999 -999 -999 -999
2008-12-09 09:29:12 51°13.604 2°52.14 -999 -999 -999 -999 -999
2008-12-09 09:29:17 51°13.603 2°52.137 -999 -999 -999 -999 -999
2008-12-09 09:29:22 51°13.602 2°52.133 -999 -999 -999 -999 -999
2008-12-09 09:29:27 51°13.601 2°52.13 -999 -999 -999 -999 -999
2008-12-09 09:29:32 51°13.6 2°52.126 -999 -999 -999 -999 -999
2008-12-09 09:29:37 51°13.599 2°52.122 -999 -999 -999 -999 -999
2008-12-09 09:29:42 51°13.598 2°52.119 -999 -999 -999 -999 -999
2008-12-09 09:29:47 51°13.597 2°52.116 -999 -999 -999 -999 -999
2008-12-09 09:29:52 51°13.596 2°52.112 -999 -999 -999 -999 -999
2008-12-09 09:29:57 51°13.595 2°52.109 -999 -999 -999 -999 -999
2008-12-09 09:30:02 51°13.594 2°52.105 -999 -999 -999 -999 -999
2008-12-09 09:30:07 51°13.593 2°52.101 -999 -999 -999 -999 -999
2008-12-09 09:30:12 51°13.592 2°52.098 -999 -999 -999 -999 -999
2008-12-09 09:30:17 51°13.591 2°52.094 -999 -999 -999 -999 -999
2008-12-09 09:30:22 51°13.59 2°52.089 -999 -999 -999 -999 -999
2008-12-09 09:30:27 51°13.589 2°52.085 -999 -999 -999 -999 -999
2008-12-09 09:30:32 51°13.588 2°52.08 -999 -999 -999 -999 -999
2008-12-09 09:30:37 51°13.587 2°52.076 -999 -999 -999 -999 -999
2008-12-09 09:30:42 51°13.587 2°52.071 -999 -999 -999 -999 -999
2008-12-09 09:30:47 51°13.586 2°52.066 -999 -999 -999 -999 -999
2008-12-09 09:30:52 51°13.585 2°52.062 -999 -999 -999 -999 -999
2008-12-09 09:30:57 51°13.584 2°52.057 -999 -999 -999 -999 -999
2008-12-09 09:31:02 51°13.582 2°52.052 -999 -999 -999 -999 -999
2008-12-09 09:31:07 51°13.581 2°52.048 -999 -999 -999 -999 -999
2008-12-09 09:31:12 51°13.58 2°52.043 -999 -999 -999 -999 -999
2008-12-09 09:31:17 51°13.579 2°52.039 -999 -999 -999 -999 -999
2008-12-09 09:31:22 51°13.578 2°52.035 -999 -999 -999 -999 -999
2008-12-09 09:31:27 51°13.577 2°52.031 -999 -999 -999 -999 -999
2008-12-09 09:31:32 51°13.577 2°52.027 -999 -999 -999 -999 -999
2008-12-09 09:31:37 51°13.576 2°52.023 -999 -999 -999 -999 -999
2008-12-09 09:31:42 51°13.575 2°52.019 -999 -999 -999 -999 -999
2008-12-09 09:31:47 51°13.574 2°52.016 -999 -999 -999 -999 -999
2008-12-09 09:31:52 51°13.573 2°52.012 -999 -999 -999 -999 -999
2008-12-09 09:31:57 51°13.572 2°52.008 -999 -999 -999 -999 -999
2008-12-09 09:32:02 51°13.571 2°52.004 -999 -999 -999 -999 -999
2008-12-09 09:32:07 51°13.57 2°52.001 -999 -999 -999 -999 -999
2008-12-09 09:32:12 51°13.569 2°51.996 -999 -999 -999 -999 -999
2008-12-09 09:32:17 51°13.568 2°51.992 -999 -999 -999 -999 -999
2008-12-09 09:32:22 51°13.568 2°51.988 -999 -999 -999 -999 -999
2008-12-09 09:32:27 51°13.567 2°51.984 -999 -999 -999 -999 -999
2008-12-09 09:32:32 51°13.566 2°51.979 -999 -999 -999 -999 -999
2008-12-09 09:32:37 51°13.565 2°51.975 -999 -999 -999 -999 -999
2008-12-09 09:32:42 51°13.565 2°51.97 -999 -999 -999 -999 -999
2008-12-09 09:32:47 51°13.564 2°51.966 -999 -999 -999 -999 -999
2008-12-09 09:32:52 51°13.563 2°51.962 -999 -999 -999 -999 -999
2008-12-09 09:32:57 51°13.562 2°51.958 -999 -999 -999 -999 -999
2008-12-09 09:33:02 51°13.561 2°51.954 -999 -999 -999 -999 -999
2008-12-09 09:33:07 51°13.56 2°51.95 -999 -999 -999 -999 -999
2008-12-09 09:33:12 51°13.559 2°51.945 -999 -999 -999 -999 -999
2008-12-09 09:33:17 51°13.558 2°51.941 -999 -999 -999 -999 -999
2008-12-09 09:33:22 51°13.557 2°51.937 -999 -999 -999 -999 -999
2008-12-09 09:33:27 51°13.556 2°51.933 -999 -999 -999 -999 -999
2008-12-09 09:33:32 51°13.555 2°51.928 -999 -999 -999 -999 -999
2008-12-09 09:33:37 51°13.555 2°51.924 -999 -999 -999 -999 -999
2008-12-09 09:33:42 51°13.554 2°51.92 -999 -999 -999 -999 -999
2008-12-09 09:33:47 51°13.553 2°51.915 -999 -999 -999 -999 -999
2008-12-09 09:33:52 51°13.551 2°51.911 -999 -999 -999 -999 -999
2008-12-09 09:33:57 51°13.55 2°51.906 -999 -999 -999 -999 -999
2008-12-09 09:34:02 51°13.549 2°51.902 -999 -999 -999 -999 -999
2008-12-09 09:34:07 51°13.548 2°51.897 -999 -999 -999 -999 -999
2008-12-09 09:34:12 51°13.548 2°51.893 -999 -999 -999 -999 -999
2008-12-09 09:34:17 51°13.546 2°51.889 -999 -999 -999 -999 -999
2008-12-09 09:34:22 51°13.545 2°51.885 -999 -999 -999 -999 -999
2008-12-09 09:34:27 51°13.544 2°51.88 -999 -999 -999 -999 -999
2008-12-09 09:34:32 51°13.543 2°51.876 -999 -999 -999 -999 -999
2008-12-09 09:34:37 51°13.542 2°51.872 -999 -999 -999 -999 -999
2008-12-09 09:34:42 51°13.54 2°51.868 -999 -999 -999 -999 -999
2008-12-09 09:34:47 51°13.539 2°51.864 -999 -999 -999 -999 -999
2008-12-09 09:34:52 51°13.538 2°51.86 -999 -999 -999 -999 -999
2008-12-09 09:34:57 51°13.536 2°51.857 -999 -999 -999 -999 -999
2008-12-09 09:35:02 51°13.535 2°51.854 -999 -999 -999 -999 -999
2008-12-09 09:35:07 51°13.534 2°51.85 -999 -999 -999 -999 -999
2008-12-09 09:35:12 51°13.533 2°51.847 -999 -999 -999 -999 -999
2008-12-09 09:35:17 51°13.531 2°51.843 -999 -999 -999 -999 -999
2008-12-09 09:35:22 51°13.53 2°51.84 -999 -999 -999 -999 -999
2008-12-09 09:35:27 51°13.529 2°51.836 -999 -999 -999 -999 -999
2008-12-09 09:35:32 51°13.528 2°51.832 -999 -999 -999 -999 -999
2008-12-09 09:35:37 51°13.527 2°51.828 -999 -999 -999 -999 -999
2008-12-09 09:35:42 51°13.526 2°51.824 -999 -999 -999 -999 -999
2008-12-09 09:35:47 51°13.524 2°51.82 -999 -999 -999 -999 -999
2008-12-09 09:35:52 51°13.523 2°51.816 -999 -999 -999 -999 -999
2008-12-09 09:35:57 51°13.522 2°51.812 -999 -999 -999 -999 -999
2008-12-09 09:36:02 51°13.521 2°51.808 -999 -999 -999 -999 -999
2008-12-09 09:36:07 51°13.52 2°51.804 -999 -999 -999 -999 -999
2008-12-09 09:36:12 51°13.519 2°51.799 -999 -999 -999 -999 -999
2008-12-09 09:36:17 51°13.518 2°51.794 -999 -999 -999 -999 -999
2008-12-09 09:36:22 51°13.517 2°51.79 -999 -999 -999 -999 -999
2008-12-09 09:36:27 51°13.516 2°51.786 -999 -999 -999 -999 -999
2008-12-09 09:36:32 51°13.514 2°51.781 -999 -999 -999 -999 -999
2008-12-09 09:36:37 51°13.513 2°51.776 -999 -999 -999 -999 -999
2008-12-09 09:36:42 51°13.512 2°51.772 -999 -999 -999 -999 -999
2008-12-09 09:36:47 51°13.511 2°51.767 -999 -999 -999 -999 -999
2008-12-09 09:36:52 51°13.51 2°51.762 -999 -999 -999 -999 -999
2008-12-09 09:36:57 51°13.509 2°51.757 -999 -999 -999 -999 -999
2008-12-09 09:37:02 51°13.508 2°51.753 -999 -999 -999 -999 -999
2008-12-09 09:37:07 51°13.507 2°51.748 -999 -999 -999 -999 -999
2008-12-09 09:37:12 51°13.506 2°51.744 -999 -999 -999 -999 -999
2008-12-09 09:37:17 51°13.506 2°51.739 -999 -999 -999 -999 -999
2008-12-09 09:37:22 51°13.505 2°51.734 -999 -999 -999 -999 -999
2008-12-09 09:37:27 51°13.504 2°51.73 -999 -999 -999 -999 -999
2008-12-09 09:37:32 51°13.503 2°51.725 -999 -999 -999 -999 -999
2008-12-09 09:37:37 51°13.502 2°51.721 -999 -999 -999 -999 -999
2008-12-09 09:37:42 51°13.501 2°51.716 -999 -999 -999 -999 -999
2008-12-09 09:37:47 51°13.5 2°51.712 -999 -999 -999 -999 -999
2008-12-09 09:37:52 51°13.5 2°51.708 -999 -999 -999 -999 -999
2008-12-09 09:37:57 51°13.499 2°51.704 -999 -999 -999 -999 -999
2008-12-09 09:38:02 51°13.498 2°51.699 -999 -999 -999 -999 -999
2008-12-09 09:38:07 51°13.497 2°51.695 -999 -999 -999 -999 -999
2008-12-09 09:38:12 51°13.497 2°51.691 -999 -999 -999 -999 -999
2008-12-09 09:38:17 51°13.496 2°51.687 -999 -999 -999 -999 -999
2008-12-09 09:38:22 51°13.494 2°51.682 -999 -999 -999 -999 -999
2008-12-09 09:38:27 51°13.494 2°51.677 -999 -999 -999 -999 -999
2008-12-09 09:38:32 51°13.493 2°51.673 -999 -999 -999 -999 -999
2008-12-09 09:38:37 51°13.492 2°51.669 -999 -999 -999 -999 -999
2008-12-09 09:38:42 51°13.491 2°51.665 -999 -999 -999 -999 -999
2008-12-09 09:38:47 51°13.49 2°51.661 -999 -999 -999 -999 -999
2008-12-09 09:38:52 51°13.489 2°51.656 -999 -999 -999 -999 -999
2008-12-09 09:38:57 51°13.489 2°51.652 -999 -999 -999 -999 -999
2008-12-09 09:39:02 51°13.488 2°51.648 -999 -999 -999 -999 -999
2008-12-09 09:39:07 51°13.487 2°51.644 -999 -999 -999 -999 -999
2008-12-09 09:39:12 51°13.487 2°51.64 -999 -999 -999 -999 -999
2008-12-09 09:39:17 51°13.486 2°51.636 -999 -999 -999 -999 -999
2008-12-09 09:39:22 51°13.485 2°51.632 -999 -999 -999 -999 -999
2008-12-09 09:39:27 51°13.484 2°51.628 -999 -999 -999 -999 -999
2008-12-09 09:39:32 51°13.484 2°51.624 -999 -999 -999 -999 -999
2008-12-09 09:39:37 51°13.482 2°51.621 -999 -999 -999 -999 -999
2008-12-09 09:39:42 51°13.482 2°51.616 -999 -999 -999 -999 -999
2008-12-09 09:39:47 51°13.481 2°51.613 -999 -999 -999 -999 -999
2008-12-09 09:39:52 51°13.48 2°51.609 -999 -999 -999 -999 -999
2008-12-09 09:39:57 51°13.479 2°51.605 -999 -999 -999 -999 -999
2008-12-09 09:40:02 51°13.478 2°51.601 -999 -999 -999 -999 -999
2008-12-09 09:40:07 51°13.477 2°51.597 -999 -999 -999 -999 -999
2008-12-09 09:40:12 51°13.476 2°51.594 -999 -999 -999 -999 -999
2008-12-09 09:40:17 51°13.475 2°51.59 -999 -999 -999 -999 -999
2008-12-09 09:40:22 51°13.474 2°51.586 -999 -999 -999 -999 -999
2008-12-09 09:40:27 51°13.473 2°51.582 -999 -999 -999 -999 -999
2008-12-09 09:40:32 51°13.472 2°51.578 -999 -999 -999 -999 -999
2008-12-09 09:40:37 51°13.471 2°51.574 -999 -999 -999 -999 -999
2008-12-09 09:40:42 51°13.47 2°51.569 -999 -999 -999 -999 -999
2008-12-09 09:40:47 51°13.47 2°51.565 -999 -999 -999 -999 -999
2008-12-09 09:40:52 51°13.469 2°51.561 -999 -999 -999 -999 -999
2008-12-09 09:40:57 51°13.468 2°51.557 -999 -999 -999 -999 -999
2008-12-09 09:41:02 51°13.468 2°51.553 -999 -999 -999 -999 -999
2008-12-09 09:41:07 51°13.467 2°51.549 -999 -999 -999 -999 -999
2008-12-09 09:41:12 51°13.466 2°51.544 -999 -999 -999 -999 -999
2008-12-09 09:41:17 51°13.466 2°51.54 -999 -999 -999 -999 -999
2008-12-09 09:41:22 51°13.465 2°51.536 -999 -999 -999 -999 -999
2008-12-09 09:41:27 51°13.464 2°51.532 -999 -999 -999 -999 -999
2008-12-09 09:41:32 51°13.464 2°51.527 -999 -999 -999 -999 -999
2008-12-09 09:41:37 51°13.464 2°51.523 -999 -999 -999 -999 -999
2008-12-09 09:41:42 51°13.463 2°51.518 -999 -999 -999 -999 -999
2008-12-09 09:41:47 51°13.463 2°51.514 -999 -999 -999 -999 -999
2008-12-09 09:41:52 51°13.462 2°51.509 -999 -999 -999 -999 -999
2008-12-09 09:41:57 51°13.461 2°51.505 -999 -999 -999 -999 -999
2008-12-09 09:42:02 51°13.461 2°51.501 -999 -999 -999 -999 -999
2008-12-09 09:42:07 51°13.46 2°51.497 -999 -999 -999 -999 -999
2008-12-09 09:42:12 51°13.46 2°51.493 -999 -999 -999 -999 -999
2008-12-09 09:42:17 51°13.459 2°51.489 -999 -999 -999 -999 -999
2008-12-09 09:42:22 51°13.459 2°51.485 -999 -999 -999 -999 -999
2008-12-09 09:42:27 51°13.458 2°51.481 -999 -999 -999 -999 -999
2008-12-09 09:42:32 51°13.458 2°51.477 -999 -999 -999 -999 -999
2008-12-09 09:42:37 51°13.457 2°51.472 -999 -999 -999 -999 -999
2008-12-09 09:42:42 51°13.456 2°51.467 -999 -999 -999 -999 -999
2008-12-09 09:42:47 51°13.456 2°51.462 -999 -999 -999 -999 -999
2008-12-09 09:42:52 51°13.456 2°51.458 -999 -999 -999 -999 -999
2008-12-09 09:42:57 51°13.455 2°51.453 -999 -999 -999 -999 -999
2008-12-09 09:43:02 51°13.454 2°51.447 -999 -999 -999 -999 -999
2008-12-09 09:43:07 51°13.454 2°51.442 -999 -999 -999 -999 -999
2008-12-09 09:43:12 51°13.453 2°51.437 -999 -999 -999 -999 -999
2008-12-09 09:43:17 51°13.452 2°51.432 -999 -999 -999 -999 -999
2008-12-09 09:43:22 51°13.452 2°51.427 -999 -999 -999 -999 -999
2008-12-09 09:43:27 51°13.451 2°51.422 -999 -999 -999 -999 -999
2008-12-09 09:43:32 51°13.451 2°51.416 -999 -999 -999 -999 -999
2008-12-09 09:43:37 51°13.449 2°51.412 -999 -999 -999 -999 -999
2008-12-09 09:43:42 51°13.449 2°51.408 -999 -999 -999 -999 -999
2008-12-09 09:43:47 51°13.448 2°51.404 -999 -999 -999 -999 -999
2008-12-09 09:43:52 51°13.448 2°51.399 -999 -999 -999 -999 -999
2008-12-09 09:43:57 51°13.447 2°51.396 -999 -999 -999 -999 -999
2008-12-09 09:44:02 51°13.446 2°51.393 -999 -999 -999 -999 -999
2008-12-09 09:44:07 51°13.446 2°51.389 -999 -999 -999 -999 -999
2008-12-09 09:44:12 51°13.446 2°51.386 -999 -999 -999 -999 -999
2008-12-09 09:44:17 51°13.445 2°51.382 -999 -999 -999 -999 -999
2008-12-09 09:44:22 51°13.445 2°51.379 -999 -999 -999 -999 -999
2008-12-09 09:44:27 51°13.444 2°51.376 -999 -999 -999 -999 -999
2008-12-09 09:44:32 51°13.443 2°51.373 -999 -999 -999 -999 -999
2008-12-09 09:44:37 51°13.442 2°51.37 -999 -999 -999 -999 -999
2008-12-09 09:44:42 51°13.442 2°51.367 -999 -999 -999 -999 -999
2008-12-09 09:44:47 51°13.441 2°51.364 -999 -999 -999 -999 -999
2008-12-09 09:44:52 51°13.44 2°51.361 -999 -999 -999 -999 -999
2008-12-09 09:44:57 51°13.44 2°51.359 -999 -999 -999 -999 -999
2008-12-09 09:45:02 51°13.439 2°51.356 -999 -999 -999 -999 -999
2008-12-09 09:45:07 51°13.438 2°51.352 -999 -999 -999 -999 -999
2008-12-09 09:45:12 51°13.438 2°51.349 -999 -999 -999 -999 -999
2008-12-09 09:45:17 51°13.437 2°51.345 -999 -999 -999 -999 -999
2008-12-09 09:45:22 51°13.436 2°51.342 -999 -999 -999 -999 -999
2008-12-09 09:45:27 51°13.436 2°51.338 -999 -999 -999 -999 -999
2008-12-09 09:45:32 51°13.435 2°51.335 -999 -999 -999 -999 -999
2008-12-09 09:45:37 51°13.434 2°51.331 -999 -999 -999 -999 -999
2008-12-09 09:45:42 51°13.433 2°51.327 -999 -999 -999 -999 -999
2008-12-09 09:45:47 51°13.433 2°51.323 -999 -999 -999 -999 -999
2008-12-09 09:45:52 51°13.431 2°51.319 -999 -999 -999 -999 -999
2008-12-09 09:45:57 51°13.43 2°51.315 -999 -999 -999 -999 -999
2008-12-09 09:46:02 51°13.429 2°51.312 -999 -999 -999 -999 -999
2008-12-09 09:46:07 51°13.428 2°51.308 -999 -999 -999 -999 -999
2008-12-09 09:46:12 51°13.428 2°51.305 -999 -999 -999 -999 -999
2008-12-09 09:46:17 51°13.427 2°51.3 -999 -999 -999 -999 -999
2008-12-09 09:46:22 51°13.426 2°51.297 -999 -999 -999 -999 -999
2008-12-09 09:46:27 51°13.425 2°51.292 -999 -999 -999 -999 -999
2008-12-09 09:46:32 51°13.424 2°51.288 -999 -999 -999 -999 -999
2008-12-09 09:46:37 51°13.424 2°51.284 -999 -999 -999 -999 -999
2008-12-09 09:46:42 51°13.423 2°51.279 -999 -999 -999 -999 -999
2008-12-09 09:46:47 51°13.422 2°51.275 -999 -999 -999 -999 -999
2008-12-09 09:46:52 51°13.421 2°51.27 -999 -999 -999 -999 -999
2008-12-09 09:46:57 51°13.421 2°51.266 -999 -999 -999 -999 -999
2008-12-09 09:47:02 51°13.42 2°51.261 -999 -999 -999 -999 -999
2008-12-09 09:47:07 51°13.419 2°51.257 -999 -999 -999 -999 -999
2008-12-09 09:47:12 51°13.419 2°51.252 -999 -999 -999 -999 -999
2008-12-09 09:47:17 51°13.417 2°51.247 -999 -999 -999 -999 -999
2008-12-09 09:47:22 51°13.416 2°51.243 -999 -999 -999 -999 -999
2008-12-09 09:47:27 51°13.415 2°51.239 -999 -999 -999 -999 -999
2008-12-09 09:47:32 51°13.414 2°51.235 -999 -999 -999 -999 -999
2008-12-09 09:47:37 51°13.413 2°51.231 -999 -999 -999 -999 -999
2008-12-09 09:47:42 51°13.413 2°51.227 -999 -999 -999 -999 -999
2008-12-09 09:47:47 51°13.412 2°51.222 -999 -999 -999 -999 -999
2008-12-09 09:47:52 51°13.411 2°51.218 -999 -999 -999 -999 -999
2008-12-09 09:47:57 51°13.41 2°51.214 -999 -999 -999 -999 -999
2008-12-09 09:48:02 51°13.41 2°51.209 -999 -999 -999 -999 -999
2008-12-09 09:48:07 51°13.409 2°51.204 -999 -999 -999 -999 -999
2008-12-09 09:48:12 51°13.409 2°51.199 -999 -999 -999 -999 -999
2008-12-09 09:48:17 51°13.408 2°51.195 -999 -999 -999 -999 -999
2008-12-09 09:48:22 51°13.407 2°51.19 -999 -999 -999 -999 -999
2008-12-09 09:48:27 51°13.406 2°51.185 -999 -999 -999 -999 -999
2008-12-09 09:48:32 51°13.405 2°51.181 -999 -999 -999 -999 -999
2008-12-09 09:48:37 51°13.405 2°51.176 -999 -999 -999 -999 -999
2008-12-09 09:48:42 51°13.404 2°51.172 -999 -999 -999 -999 -999
2008-12-09 09:48:47 51°13.404 2°51.167 -999 -999 -999 -999 -999
2008-12-09 09:48:52 51°13.404 2°51.162 -999 -999 -999 -999 -999
2008-12-09 09:48:57 51°13.403 2°51.158 -999 -999 -999 -999 -999
2008-12-09 09:49:02 51°13.403 2°51.155 -999 -999 -999 -999 -999
2008-12-09 09:49:07 51°13.404 2°51.151 -999 -999 -999 -999 -999
2008-12-09 09:49:12 51°13.404 2°51.147 -999 -999 -999 -999 -999
2008-12-09 09:49:17 51°13.405 2°51.144 -999 -999 -999 -999 -999
2008-12-09 09:49:22 51°13.406 2°51.14 -999 -999 -999 -999 -999
2008-12-09 09:49:27 51°13.407 2°51.136 -999 -999 -999 -999 -999
2008-12-09 09:49:32 51°13.408 2°51.132 -999 -999 -999 -999 -999
2008-12-09 09:49:37 51°13.409 2°51.128 -999 -999 -999 -999 -999
2008-12-09 09:49:42 51°13.41 2°51.125 -999 -999 -999 -999 -999
2008-12-09 09:49:47 51°13.411 2°51.121 -999 -999 -999 -999 -999
2008-12-09 09:49:52 51°13.412 2°51.117 -999 -999 -999 -999 -999
2008-12-09 09:49:57 51°13.413 2°51.113 -999 -999 -999 -999 -999
2008-12-09 09:50:02 51°13.414 2°51.11 -999 -999 -999 -999 -999
2008-12-09 09:50:07 51°13.415 2°51.106 -999 -999 -999 -999 -999
2008-12-09 09:50:12 51°13.415 2°51.102 -999 -999 -999 -999 -999
2008-12-09 09:50:17 51°13.416 2°51.098 -999 -999 -999 -999 -999
2008-12-09 09:50:22 51°13.416 2°51.095 -999 -999 -999 -999 -999
2008-12-09 09:50:27 51°13.417 2°51.09 -999 -999 -999 -999 -999
2008-12-09 09:50:32 51°13.417 2°51.086 -999 -999 -999 -999 -999
2008-12-09 09:50:37 51°13.418 2°51.083 -999 -999 -999 -999 -999
2008-12-09 09:50:42 51°13.418 2°51.079 -999 -999 -999 -999 -999
2008-12-09 09:50:47 51°13.418 2°51.075 -999 -999 -999 -999 -999
2008-12-09 09:50:52 51°13.419 2°51.071 -999 -999 -999 -999 -999
2008-12-09 09:50:57 51°13.418 2°51.068 -999 -999 -999 -999 -999
2008-12-09 09:51:02 51°13.419 2°51.063 -999 -999 -999 -999 -999
2008-12-09 09:51:07 51°13.419 2°51.059 -999 -999 -999 -999 -999
2008-12-09 09:51:12 51°13.419 2°51.055 -999 -999 -999 -999 -999
2008-12-09 09:51:17 51°13.419 2°51.051 -999 -999 -999 -999 -999
2008-12-09 09:51:22 51°13.419 2°51.046 -999 -999 -999 -999 -999
2008-12-09 09:51:27 51°13.42 2°51.041 -999 -999 -999 -999 -999
2008-12-09 09:51:32 51°13.42 2°51.037 -999 -999 -999 -999 -999
2008-12-09 09:51:37 51°13.421 2°51.032 -999 -999 -999 -999 -999
2008-12-09 09:51:42 51°13.421 2°51.027 -999 -999 -999 -999 -999
2008-12-09 09:51:47 51°13.421 2°51.022 -999 -999 -999 -999 -999
2008-12-09 09:51:52 51°13.42 2°51.018 -999 -999 -999 -999 -999
2008-12-09 09:51:57 51°13.42 2°51.013 -999 -999 -999 -999 -999
2008-12-09 09:52:02 51°13.42 2°51.009 -999 -999 -999 -999 -999
2008-12-09 09:52:07 51°13.419 2°51.004 -999 -999 -999 -999 -999
2008-12-09 09:52:12 51°13.419 2°51 -999 -999 -999 -999 -999
2008-12-09 09:52:17 51°13.418 2°50.995 -999 -999 -999 -999 -999
2008-12-09 09:52:22 51°13.417 2°50.991 -999 -999 -999 -999 -999
2008-12-09 09:52:27 51°13.417 2°50.987 -999 -999 -999 -999 -999
2008-12-09 09:52:32 51°13.416 2°50.982 -999 -999 -999 -999 -999
2008-12-09 09:52:37 51°13.416 2°50.978 -999 -999 -999 -999 -999
2008-12-09 09:52:42 51°13.415 2°50.973 -999 -999 -999 -999 -999
2008-12-09 09:52:47 51°13.414 2°50.969 -999 -999 -999 -999 -999
2008-12-09 09:52:52 51°13.413 2°50.964 -999 -999 -999 -999 -999
2008-12-09 09:52:57 51°13.412 2°50.96 -999 -999 -999 -999 -999
2008-12-09 09:53:02 51°13.411 2°50.955 -999 -999 -999 -999 -999
2008-12-09 09:53:07 51°13.41 2°50.95 -999 -999 -999 -999 -999
2008-12-09 09:53:12 51°13.409 2°50.946 -999 -999 -999 -999 -999
2008-12-09 09:53:17 51°13.407 2°50.941 -999 -999 -999 -999 -999
2008-12-09 09:53:22 51°13.406 2°50.937 -999 -999 -999 -999 -999
2008-12-09 09:53:27 51°13.405 2°50.932 -999 -999 -999 -999 -999
2008-12-09 09:53:32 51°13.404 2°50.928 -999 -999 -999 -999 -999
2008-12-09 09:53:37 51°13.402 2°50.925 -999 -999 -999 -999 -999
2008-12-09 09:53:42 51°13.401 2°50.921 -999 -999 -999 -999 -999
2008-12-09 09:53:47 51°13.4 2°50.917 -999 -999 -999 -999 -999
2008-12-09 09:53:52 51°13.399 2°50.914 -999 -999 -999 -999 -999
2008-12-09 09:53:57 51°13.398 2°50.91 -999 -999 -999 -999 -999
2008-12-09 09:54:02 51°13.396 2°50.906 -999 -999 -999 -999 -999
2008-12-09 09:54:07 51°13.395 2°50.903 -999 -999 -999 -999 -999
2008-12-09 09:54:12 51°13.394 2°50.899 -999 -999 -999 -999 -999
2008-12-09 09:54:17 51°13.393 2°50.896 -999 -999 -999 -999 -999
2008-12-09 09:54:22 51°13.392 2°50.893 -999 -999 -999 -999 -999
2008-12-09 09:54:27 51°13.391 2°50.89 -999 -999 -999 -999 -999
2008-12-09 09:54:32 51°13.39 2°50.887 -999 -999 -999 -999 -999
2008-12-09 09:54:37 51°13.389 2°50.884 -999 -999 -999 -999 -999
2008-12-09 09:54:42 51°13.387 2°50.88 -999 -999 -999 -999 -999
2008-12-09 09:54:47 51°13.386 2°50.877 -999 -999 -999 -999 -999
2008-12-09 09:54:52 51°13.385 2°50.874 -999 -999 -999 -999 -999
2008-12-09 09:54:57 51°13.384 2°50.871 -999 -999 -999 -999 -999
2008-12-09 09:55:02 51°13.383 2°50.868 -999 -999 -999 -999 -999
2008-12-09 09:55:07 51°13.382 2°50.865 -999 -999 -999 -999 -999
2008-12-09 09:55:12 51°13.381 2°50.862 -999 -999 -999 -999 -999
2008-12-09 09:55:17 51°13.38 2°50.858 -999 -999 -999 -999 -999
2008-12-09 09:55:22 51°13.379 2°50.856 -999 -999 -999 -999 -999
2008-12-09 09:55:27 51°13.378 2°50.853 -999 -999 -999 -999 -999
2008-12-09 09:55:32 51°13.378 2°50.85 -999 -999 -999 -999 -999
2008-12-09 09:55:37 51°13.377 2°50.847 -999 -999 -999 -999 -999
2008-12-09 09:55:42 51°13.375 2°50.844 -999 -999 -999 -999 -999
2008-12-09 09:55:47 51°13.374 2°50.842 -999 -999 -999 -999 -999
2008-12-09 09:55:52 51°13.373 2°50.839 -999 -999 -999 -999 -999
2008-12-09 09:55:57 51°13.372 2°50.836 -999 -999 -999 -999 -999
2008-12-09 09:56:02 51°13.371 2°50.833 -999 -999 -999 -999 -999
2008-12-09 09:56:07 51°13.37 2°50.829 -999 -999 -999 -999 -999
2008-12-09 09:56:12 51°13.369 2°50.826 -999 -999 -999 -999 -999
2008-12-09 09:56:17 51°13.368 2°50.823 -999 -999 -999 -999 -999
2008-12-09 09:56:22 51°13.367 2°50.82 -999 -999 -999 -999 -999
2008-12-09 09:56:27 51°13.365 2°50.818 -999 -999 -999 -999 -999
2008-12-09 09:56:32 51°13.364 2°50.815 -999 -999 -999 -999 -999
2008-12-09 09:56:37 51°13.364 2°50.813 -999 -999 -999 -999 -999
2008-12-09 09:56:42 51°13.363 2°50.811 -999 -999 -999 -999 -999
2008-12-09 09:56:47 51°13.362 2°50.81 -999 -999 -999 -999 -999
2008-12-09 09:56:52 51°13.362 2°50.808 -999 -999 -999 -999 -999
2008-12-09 09:56:57 51°13.361 2°50.806 -999 -999 -999 -999 -999
2008-12-09 09:57:02 51°13.361 2°50.805 -999 -999 -999 -999 -999
2008-12-09 09:57:07 51°13.36 2°50.803 -999 -999 -999 -999 -999
2008-12-09 09:57:12 51°13.36 2°50.801 -999 -999 -999 -999 -999
2008-12-09 09:57:17 51°13.359 2°50.799 -999 -999 -999 -999 -999
2008-12-09 09:57:22 51°13.359 2°50.798 -999 -999 -999 -999 -999
2008-12-09 09:57:27 51°13.358 2°50.796 -999 -999 -999 -999 -999
2008-12-09 09:57:32 51°13.358 2°50.795 -999 -999 -999 -999 -999
2008-12-09 09:57:37 51°13.357 2°50.793 -999 -999 -999 -999 -999
2008-12-09 09:57:42 51°13.357 2°50.792 -999 -999 -999 -999 -999
2008-12-09 09:57:47 51°13.357 2°50.791 -999 -999 -999 -999 -999
2008-12-09 09:57:52 51°13.356 2°50.79 -999 -999 -999 -999 -999
2008-12-09 09:57:57 51°13.356 2°50.789 -999 -999 -999 -999 -999
2008-12-09 09:58:02 51°13.356 2°50.789 -999 -999 -999 -999 -999
2008-12-09 09:58:07 51°13.356 2°50.789 -999 -999 -999 -999 -999
2008-12-09 09:58:12 51°13.356 2°50.789 -999 -999 -999 -999 -999
2008-12-09 09:58:17 51°13.355 2°50.788 -999 -999 -999 -999 -999
2008-12-09 09:58:22 51°13.355 2°50.788 -999 -999 -999 -999 -999
2008-12-09 09:58:27 51°13.355 2°50.788 -999 -999 -999 -999 -999
2008-12-09 09:58:32 51°13.355 2°50.789 -999 -999 -999 -999 -999
2008-12-09 09:58:37 51°13.354 2°50.789 -999 -999 -999 -999 -999
2008-12-09 09:58:42 51°13.354 2°50.79 -999 -999 -999 -999 -999
2008-12-09 09:58:47 51°13.354 2°50.791 -999 -999 -999 -999 -999
2008-12-09 09:58:52 51°13.353 2°50.792 -999 -999 -999 -999 -999
2008-12-09 09:58:57 51°13.353 2°50.793 -999 -999 -999 -999 -999
2008-12-09 09:59:02 51°13.353 2°50.795 -999 -999 -999 -999 -999
2008-12-09 09:59:07 51°13.352 2°50.796 -999 -999 -999 -999 -999
2008-12-09 09:59:12 51°13.352 2°50.798 -999 -999 -999 -999 -999
2008-12-09 09:59:17 51°13.351 2°50.799 -999 -999 -999 -999 -999
2008-12-09 09:59:22 51°13.351 2°50.802 -999 -999 -999 -999 -999
2008-12-09 09:59:27 51°13.351 2°50.804 -999 -999 -999 -999 -999
2008-12-09 09:59:32 51°13.35 2°50.805 -999 -999 -999 -999 -999
2008-12-09 09:59:37 51°13.35 2°50.807 -999 -999 -999 -999 -999
2008-12-09 09:59:42 51°13.349 2°50.809 -999 -999 -999 -999 -999
2008-12-09 09:59:47 51°13.349 2°50.811 -999 -999 -999 -999 -999
2008-12-09 09:59:52 51°13.349 2°50.814 -999 -999 -999 -999 -999
2008-12-09 09:59:57 51°13.348 2°50.816 -999 -999 -999 -999 -999
2008-12-09 10:00:02 51°13.348 2°50.818 -999 -999 -999 -999 -999
2008-12-09 10:00:07 51°13.347 2°50.82 -999 -999 -999 -999 -999
2008-12-09 10:00:12 51°13.347 2°50.822 -999 -999 -999 -999 -999
2008-12-09 10:00:17 51°13.347 2°50.825 -999 -999 -999 -999 -999
2008-12-09 10:00:22 51°13.346 2°50.828 -999 -999 -999 -999 -999
2008-12-09 10:00:27 51°13.346 2°50.83 -999 -999 -999 -999 -999
2008-12-09 10:00:32 51°13.345 2°50.832 -999 -999 -999 -999 -999
2008-12-09 10:00:37 51°13.345 2°50.834 -999 -999 -999 -999 -999
2008-12-09 10:00:42 51°13.345 2°50.837 -999 -999 -999 -999 -999
2008-12-09 10:00:47 51°13.344 2°50.839 -999 -999 -999 -999 -999
2008-12-09 10:00:52 51°13.344 2°50.841 -999 -999 -999 -999 -999
2008-12-09 10:00:57 51°13.344 2°50.844 -999 -999 -999 -999 -999
2008-12-09 10:01:02 51°13.344 2°50.846 -999 -999 -999 -999 -999
2008-12-09 10:01:07 51°13.343 2°50.849 -999 -999 -999 -999 -999
2008-12-09 10:01:12 51°13.343 2°50.851 -999 -999 -999 -999 -999
2008-12-09 10:01:17 51°13.342 2°50.853 -999 -999 -999 -999 -999
2008-12-09 10:01:22 51°13.342 2°50.856 -999 -999 -999 -999 -999
2008-12-09 10:01:27 51°13.342 2°50.859 -999 -999 -999 -999 -999
2008-12-09 10:01:32 51°13.342 2°50.861 -999 -999 -999 -999 -999
2008-12-09 10:01:37 51°13.341 2°50.864 -999 -999 -999 -999 -999
2008-12-09 10:01:42 51°13.341 2°50.866 -999 -999 -999 -999 -999
2008-12-09 10:01:47 51°13.341 2°50.869 -999 -999 -999 -999 -999
2008-12-09 10:01:52 51°13.341 2°50.872 -999 -999 -999 -999 -999
2008-12-09 10:01:57 51°13.34 2°50.874 -999 -999 -999 -999 -999
2008-12-09 10:02:02 51°13.34 2°50.877 -999 -999 -999 -999 -999
2008-12-09 10:02:07 51°13.34 2°50.88 -999 -999 -999 -999 -999